createdAt,value
2018-07-15T00:03:56.673Z,99.90
2018-07-15T00:06:25.894Z,99.90
2018-07-15T00:08:55.887Z,99.90
2018-07-15T00:11:25.007Z,99.90
2018-07-15T00:16:22.964Z,99.90
2018-07-15T00:18:52.059Z,99.90
2018-07-15T00:21:21.233Z,99.90
2018-07-15T00:23:50.470Z,99.90
2018-07-15T00:26:19.740Z,99.90
2018-07-15T00:28:48.893Z,99.90
2018-07-15T00:31:18.033Z,99.90
2018-07-15T00:33:47.269Z,99.90
2018-07-15T00:38:45.142Z,99.90
2018-07-15T00:41:14.352Z,99.90
2018-07-15T00:46:12.203Z,99.90
2018-07-15T00:48:42.320Z,99.90
2018-07-15T00:51:11.623Z,99.90
2018-07-15T00:53:40.816Z,99.90
2018-07-15T01:01:07.362Z,99.90
2018-07-15T01:03:36.609Z,99.90
2018-07-15T01:11:03.220Z,99.90
2018-07-15T01:13:32.607Z,99.90
2018-07-15T01:16:01.632Z,99.90
2018-07-15T01:18:30.703Z,99.90
2018-07-15T01:21:01.063Z,99.90
2018-07-15T01:23:30.582Z,99.90
2018-07-15T01:25:59.838Z,99.90
2018-07-15T01:28:28.958Z,99.90
2018-07-15T01:33:27.712Z,99.90
2018-07-15T01:35:56.941Z,99.90
2018-07-15T01:38:26.135Z,99.90
2018-07-15T01:40:55.307Z,99.90
2018-07-15T01:43:24.425Z,99.90
2018-07-15T01:45:53.715Z,99.90
2018-07-15T01:48:22.801Z,99.90
2018-07-15T01:50:51.931Z,99.90
2018-07-15T01:53:21.083Z,99.90
2018-07-15T01:55:50.275Z,99.90
2018-07-15T02:00:48.805Z,99.90
2018-07-15T02:03:17.950Z,99.90
2018-07-15T02:05:47.002Z,99.90
2018-07-15T02:08:16.222Z,99.90
2018-07-15T02:10:45.393Z,99.90
2018-07-15T02:13:14.474Z,99.90
2018-07-15T02:15:43.542Z,99.90
2018-07-15T02:18:12.623Z,99.90
2018-07-15T02:20:41.722Z,99.90
2018-07-15T02:25:39.614Z,99.90
2018-07-15T02:30:37.412Z,99.90
2018-07-15T02:33:06.512Z,99.90
2018-07-15T02:35:35.658Z,99.90
2018-07-15T02:38:04.870Z,99.90
2018-07-15T02:40:34.013Z,99.90
2018-07-15T02:43:03.046Z,99.90
2018-07-15T02:45:32.220Z,99.90
2018-07-15T02:48:01.513Z,99.90
2018-07-15T02:50:30.926Z,99.90
2018-07-15T02:53:00.076Z,99.90
2018-07-15T02:55:29.340Z,99.90
2018-07-15T02:57:58.429Z,99.90
2018-07-15T03:00:29.115Z,99.90
2018-07-15T03:02:59.147Z,99.90
2018-07-15T03:05:28.280Z,99.90
2018-07-15T03:07:57.466Z,99.90
2018-07-15T03:10:26.648Z,99.90
2018-07-15T03:12:56.027Z,99.90
2018-07-15T03:15:25.175Z,99.90
2018-07-15T03:17:54.390Z,99.90
2018-07-15T03:20:23.480Z,99.90
2018-07-15T03:22:52.565Z,99.90
2018-07-15T03:25:22.375Z,99.90
2018-07-15T03:27:51.406Z,99.90
2018-07-15T03:30:20.482Z,99.90
2018-07-15T03:32:49.552Z,99.90
2018-07-15T03:35:18.604Z,99.90
2018-07-15T03:37:47.689Z,99.90
2018-07-15T03:40:17.769Z,99.90
2018-07-15T03:42:47.411Z,99.90
2018-07-15T03:45:16.487Z,99.90
2018-07-15T03:47:45.606Z,99.90
2018-07-15T03:50:14.718Z,99.90
2018-07-15T03:52:43.775Z,99.90
2018-07-15T03:55:12.839Z,99.90
2018-07-15T03:57:42.014Z,99.90
2018-07-15T04:00:13.715Z,99.90
2018-07-15T04:02:42.825Z,99.90
2018-07-15T04:05:11.975Z,99.90
2018-07-15T04:07:41.102Z,99.90
2018-07-15T04:10:10.250Z,99.90
2018-07-15T04:12:39.355Z,99.90
2018-07-15T04:15:08.646Z,99.90
2018-07-15T04:17:37.823Z,99.90
2018-07-15T04:20:06.909Z,99.90
2018-07-15T04:22:36.056Z,99.90
2018-07-15T04:25:05.149Z,99.90
2018-07-15T04:27:34.254Z,99.90
2018-07-15T04:32:32.081Z,99.90
2018-07-15T04:35:01.183Z,99.90
2018-07-15T04:37:30.295Z,99.90
2018-07-15T04:39:59.393Z,99.90
2018-07-15T04:42:28.469Z,99.90
2018-07-15T04:44:57.586Z,99.90
2018-07-15T04:47:26.698Z,99.90
2018-07-15T04:49:55.741Z,99.90
2018-07-15T04:52:24.818Z,99.90
2018-07-15T04:54:53.924Z,99.90
2018-07-15T04:57:23.399Z,99.90
2018-07-15T04:59:52.494Z,99.90
2018-07-15T05:02:21.599Z,99.90
2018-07-15T05:04:50.701Z,99.90
2018-07-15T05:07:19.775Z,99.90
2018-07-15T05:09:48.908Z,99.90
2018-07-15T05:12:18.010Z,99.90
2018-07-15T05:14:47.125Z,99.90
2018-07-15T05:17:16.269Z,99.90
2018-07-15T05:19:46.403Z,99.90
2018-07-15T05:22:15.501Z,99.90
2018-07-15T05:24:44.597Z,99.90
2018-07-15T05:27:13.685Z,99.90
2018-07-15T05:29:42.806Z,99.90
2018-07-15T05:32:11.971Z,99.90
2018-07-15T05:34:41.817Z,99.90
2018-07-15T05:37:10.882Z,99.90
2018-07-15T05:39:39.950Z,99.90
2018-07-15T05:47:06.775Z,99.90
2018-07-15T05:49:36.021Z,99.90
2018-07-15T05:54:33.770Z,99.90
2018-07-15T05:57:02.875Z,99.90
2018-07-15T05:59:31.965Z,99.90
2018-07-15T06:02:01.051Z,99.90
2018-07-15T06:04:30.195Z,99.90
2018-07-15T06:06:59.226Z,99.90
2018-07-15T06:09:28.296Z,99.90
2018-07-15T06:11:58.327Z,99.90
2018-07-15T06:14:27.413Z,99.90
2018-07-15T06:16:56.678Z,99.90
2018-07-15T06:21:54.472Z,99.90
2018-07-15T06:24:23.601Z,99.90
2018-07-15T06:26:53.057Z,99.90
2018-07-15T06:29:22.218Z,99.90
2018-07-15T06:31:51.339Z,99.90
2018-07-15T06:34:20.561Z,99.90
2018-07-15T06:36:49.560Z,99.90
2018-07-15T06:39:19.340Z,99.90
2018-07-15T06:44:17.238Z,99.90
2018-07-15T06:46:46.422Z,99.90
2018-07-15T06:51:44.288Z,99.90
2018-07-15T06:54:13.373Z,99.90
2018-07-15T06:56:42.959Z,99.90
2018-07-15T06:59:12.030Z,99.90
2018-07-15T07:01:41.215Z,99.90
2018-07-15T07:04:11.610Z,99.90
2018-07-15T07:06:40.659Z,99.90
2018-07-15T07:09:10.699Z,99.00
2018-07-15T07:11:39.851Z,98.40
2018-07-15T07:14:09.001Z,97.20
2018-07-15T07:16:38.103Z,96.00
2018-07-15T07:19:07.962Z,96.60
2018-07-15T07:21:36.974Z,95.20
2018-07-15T07:24:06.121Z,95.40
2018-07-15T07:26:35.202Z,94.50
2018-07-15T07:29:04.337Z,94.00
2018-07-15T07:31:34.206Z,92.70
2018-07-15T07:34:03.444Z,91.50
2018-07-15T07:36:32.560Z,91.90
2018-07-15T07:39:01.684Z,90.70
2018-07-15T07:41:30.871Z,90.80
2018-07-15T07:44:00.056Z,88.00
2018-07-15T07:46:29.183Z,88.00
2018-07-15T07:48:58.321Z,86.50
2018-07-15T07:51:27.401Z,84.50
2018-07-15T08:01:23.000Z,81.10
2018-07-15T08:03:52.233Z,80.20
2018-07-15T08:06:21.390Z,77.80
2018-07-15T08:08:51.008Z,78.60
2018-07-15T08:11:20.061Z,77.90
2018-07-15T08:13:49.199Z,77.40
2018-07-15T08:16:18.348Z,77.70
2018-07-15T08:18:47.469Z,76.00
2018-07-15T08:21:16.594Z,75.40
2018-07-15T08:23:45.670Z,77.00
2018-07-15T08:26:14.787Z,75.60
2018-07-15T08:28:43.855Z,73.20
2018-07-15T08:31:16.808Z,73.00
2018-07-15T08:33:45.926Z,73.10
2018-07-15T08:36:15.073Z,74.10
2018-07-15T08:38:44.234Z,73.80
2018-07-15T08:41:14.299Z,70.50
2018-07-15T08:46:12.236Z,70.00
2018-07-15T08:48:41.498Z,69.50
2018-07-15T08:51:10.631Z,70.70
2018-07-15T08:53:39.801Z,71.00
2018-07-15T08:56:08.966Z,69.20
2018-07-15T09:01:07.565Z,71.00
2018-07-15T09:06:05.759Z,69.50
2018-07-15T09:11:03.775Z,69.50
2018-07-15T09:13:34.036Z,68.10
2018-07-15T09:16:03.215Z,68.20
2018-07-15T09:18:32.292Z,66.50
2018-07-15T09:21:01.404Z,65.20
2018-07-15T09:23:30.443Z,65.20
2018-07-15T09:28:28.403Z,64.10
2018-07-15T09:30:57.566Z,62.90
2018-07-15T09:33:26.719Z,61.70
2018-07-15T09:38:24.658Z,61.30
2018-07-15T09:40:53.797Z,62.60
2018-07-15T09:43:22.915Z,62.80
2018-07-15T09:45:52.136Z,62.50
2018-07-15T09:48:21.263Z,63.20
2018-07-15T09:50:50.377Z,61.80
2018-07-15T09:53:19.481Z,61.30
2018-07-15T10:00:51.551Z,63.60
2018-07-15T10:03:20.647Z,64.20
2018-07-15T10:05:49.775Z,64.20
2018-07-15T10:15:46.259Z,60.50
2018-07-15T10:18:15.350Z,60.10
2018-07-15T10:23:13.201Z,59.50
2018-07-15T10:25:42.310Z,59.70
2018-07-15T10:28:11.667Z,58.90
2018-07-15T10:30:41.631Z,60.20
2018-07-15T10:33:11.385Z,60.40
2018-07-15T10:35:40.504Z,61.00
2018-07-15T10:38:09.625Z,61.60
2018-07-15T10:40:38.759Z,62.20
2018-07-15T10:43:08.203Z,61.40
2018-07-15T10:45:37.437Z,61.20
2018-07-15T10:50:35.538Z,59.40
2018-07-15T10:53:04.663Z,59.00
2018-07-15T10:55:33.810Z,58.50
2018-07-15T10:58:02.907Z,58.30
2018-07-15T11:05:29.539Z,59.40
2018-07-15T11:07:58.623Z,59.30
2018-07-15T11:10:27.836Z,60.50
2018-07-15T11:12:56.944Z,60.50
2018-07-15T11:15:26.110Z,61.00
2018-07-15T11:17:55.295Z,60.00
2018-07-15T11:20:24.449Z,58.90
2018-07-15T11:27:51.416Z,56.80
2018-07-15T11:30:20.593Z,56.80
2018-07-15T11:32:49.790Z,56.70
2018-07-15T11:35:18.883Z,57.10
2018-07-15T11:37:48.042Z,57.10
2018-07-15T11:40:17.845Z,56.00
2018-07-15T11:42:47.397Z,55.70
2018-07-15T11:45:16.475Z,55.70
2018-07-15T11:47:45.624Z,56.30
2018-07-15T11:50:14.709Z,57.00
2018-07-15T11:55:12.571Z,58.20
2018-07-15T11:57:41.671Z,58.40
2018-07-15T12:00:10.874Z,57.90
2018-07-15T12:08:44.511Z,56.70
2018-07-15T12:11:17.433Z,56.00
2018-07-15T12:14:07.304Z,54.90
2018-07-15T12:16:40.400Z,55.30
2018-07-15T12:19:13.698Z,53.90
2018-07-15T12:21:50.805Z,53.30
2018-07-15T12:24:23.454Z,54.10
2018-07-15T12:26:59.931Z,53.90
2018-07-15T12:29:31.483Z,54.30
2018-07-15T12:32:25.152Z,54.40
2018-07-15T12:35:00.293Z,54.80
2018-07-15T12:37:32.257Z,53.10
2018-07-15T12:40:02.978Z,49.50
2018-07-15T12:42:32.547Z,47.50
2018-07-15T12:47:31.198Z,43.40
2018-07-15T12:50:00.714Z,40.40
2018-07-15T12:52:30.904Z,38.70
2018-07-15T12:55:00.634Z,37.80
2018-07-15T12:57:29.843Z,36.60
2018-07-15T12:59:59.011Z,35.50
2018-07-15T13:02:28.155Z,35.40
2018-07-15T13:04:57.662Z,34.70
2018-07-15T13:07:26.899Z,33.50
2018-07-15T13:12:25.126Z,31.20
2018-07-15T13:14:54.520Z,30.70
2018-07-15T13:17:23.704Z,29.70
2018-07-15T13:19:52.920Z,30.30
2018-07-15T13:22:22.233Z,30.20
2018-07-15T13:24:51.362Z,30.10
2018-07-15T13:27:20.486Z,30.20
2018-07-15T13:29:49.574Z,30.00
2018-07-15T13:34:47.421Z,30.90
2018-07-15T13:37:30.071Z,30.40
2018-07-15T13:40:07.235Z,29.50
2018-07-15T13:50:35.421Z,27.70
2018-07-15T13:53:04.509Z,27.50
2018-07-15T13:55:33.558Z,27.40
2018-07-15T14:00:31.917Z,28.80
2018-07-15T14:03:00.998Z,29.50
2018-07-15T14:05:30.098Z,29.40
2018-07-15T14:07:59.200Z,29.20
2018-07-15T14:10:28.350Z,30.30
2018-07-15T14:12:57.440Z,30.00
2018-07-15T14:15:26.572Z,29.80
2018-07-15T14:17:55.708Z,31.10
2018-07-15T14:22:53.565Z,29.90
2018-07-15T14:25:22.660Z,28.90
2018-07-15T14:27:51.788Z,28.20
2018-07-15T14:30:20.871Z,26.40
2018-07-15T14:35:18.723Z,26.60
2018-07-15T14:37:48.286Z,27.60
2018-07-15T14:40:17.432Z,29.40
2018-07-15T14:42:46.516Z,29.80
2018-07-15T14:45:16.077Z,28.50
2018-07-15T14:47:46.497Z,27.40
2018-07-15T14:50:15.752Z,26.70
2018-07-15T14:52:44.834Z,25.60
2018-07-15T14:55:13.896Z,25.30
2018-07-15T14:57:43.078Z,24.90
2018-07-15T15:02:41.011Z,24.50
2018-07-15T15:05:10.156Z,24.20
2018-07-15T15:07:39.215Z,24.20
2018-07-15T15:10:08.277Z,25.10
2018-07-15T15:12:37.301Z,25.10
2018-07-15T15:15:06.420Z,25.50
2018-07-15T15:17:35.560Z,26.40
2018-07-15T15:20:04.732Z,27.30
2018-07-15T15:25:02.557Z,27.70
2018-07-15T15:27:31.716Z,28.40
2018-07-15T15:30:00.803Z,27.80
2018-07-15T15:34:58.853Z,26.30
2018-07-15T15:37:28.013Z,25.40
2018-07-15T15:39:57.151Z,24.90
2018-07-15T15:42:26.341Z,25.80
2018-07-15T15:44:55.501Z,25.50
2018-07-15T15:47:24.502Z,24.80
2018-07-15T15:49:53.690Z,23.80
2018-07-15T15:52:22.789Z,24.40
2018-07-15T15:54:51.867Z,24.60
2018-07-15T15:57:20.957Z,24.60
2018-07-15T15:59:50.060Z,25.00
2018-07-15T16:02:19.308Z,24.80
2018-07-15T16:04:48.356Z,24.60
2018-07-15T16:09:46.296Z,24.90
2018-07-15T16:12:15.506Z,25.30
2018-07-15T16:17:13.310Z,26.50
2018-07-15T16:19:42.402Z,26.60
2018-07-15T16:22:11.562Z,26.30
2018-07-15T16:24:40.659Z,25.40
2018-07-15T16:27:09.845Z,25.60
2018-07-15T16:29:38.909Z,25.40
2018-07-15T16:32:08.087Z,25.30
2018-07-15T16:34:37.179Z,25.20
2018-07-15T16:37:06.287Z,25.30
2018-07-15T16:39:35.437Z,25.00
2018-07-15T16:42:05.613Z,24.70
2018-07-15T16:44:34.691Z,24.90
2018-07-15T16:47:03.827Z,26.00
2018-07-15T16:49:32.978Z,27.80
2018-07-15T16:52:02.185Z,29.00
2018-07-15T16:54:32.100Z,29.80
2018-07-15T16:57:01.307Z,31.70
2018-07-15T16:59:30.401Z,33.60
2018-07-15T17:01:59.609Z,35.00
2018-07-15T17:04:28.959Z,35.80
2018-07-15T17:06:58.033Z,36.00
2018-07-15T17:09:27.154Z,36.50
2018-07-15T17:14:25.024Z,36.20
2018-07-15T17:16:54.401Z,36.80
2018-07-15T17:19:23.465Z,37.10
2018-07-15T17:21:52.895Z,37.60
2018-07-15T17:24:22.038Z,37.70
2018-07-15T17:26:56.196Z,37.80
2018-07-15T17:37:44.640Z,38.70
2018-07-15T17:40:22.026Z,38.90
2018-07-15T17:46:39.240Z,39.00
2018-07-15T17:51:59.179Z,39.50
2018-07-15T17:54:35.435Z,39.90
2018-07-15T17:58:03.390Z,40.10
2018-07-15T18:07:07.908Z,41.10
2018-07-15T18:09:44.664Z,41.20
2018-07-15T18:14:11.780Z,41.50
2018-07-15T18:16:57.266Z,41.60
2018-07-15T18:25:06.225Z,42.40
2018-07-15T18:28:03.421Z,42.70
2018-07-15T18:38:55.937Z,42.90
2018-07-15T18:41:53.350Z,43.10
2018-07-15T18:53:32.237Z,45.00
2018-07-15T19:08:12.603Z,45.20
2018-07-15T19:10:49.437Z,45.50
2018-07-15T19:20:45.574Z,47.10
2018-07-15T19:26:45.245Z,47.80
2018-07-15T19:29:16.162Z,48.20
2018-07-15T19:31:48.219Z,48.30
2018-07-15T19:34:19.490Z,48.50
2018-07-15T19:39:23.387Z,49.10
2018-07-15T19:48:12.374Z,49.90
2018-07-15T19:50:42.059Z,50.10
2018-07-15T19:53:12.831Z,50.20
2018-07-15T19:55:50.343Z,50.70
2018-07-15T19:58:21.220Z,51.30
2018-07-15T20:00:55.532Z,52.10
2018-07-15T20:03:28.934Z,52.20
2018-07-15T20:05:59.021Z,52.60
2018-07-15T20:08:29.744Z,53.40
2018-07-15T20:13:34.253Z,54.00
2018-07-15T20:16:07.773Z,54.30
2018-07-15T20:18:44.037Z,55.60
2018-07-15T20:21:17.711Z,55.10
2018-07-15T20:23:46.785Z,55.80
2018-07-15T20:26:15.930Z,56.40
2018-07-15T20:28:45.200Z,56.90
2018-07-15T20:31:14.411Z,57.70
2018-07-15T20:33:44.833Z,58.10
2018-07-15T20:36:14.270Z,58.40
2018-07-15T20:38:43.519Z,58.60
2018-07-15T20:41:12.881Z,59.20
2018-07-15T20:43:42.241Z,60.00
2018-07-15T20:46:11.395Z,61.80
2018-07-15T20:48:40.580Z,63.10
2018-07-15T20:51:09.739Z,64.00
2018-07-15T20:53:38.963Z,65.30
2018-07-15T20:56:08.181Z,67.40
2018-07-15T20:58:37.491Z,69.10
2018-07-15T21:01:06.745Z,70.50
2018-07-15T21:03:35.853Z,72.60
2018-07-15T21:06:05.025Z,74.60
2018-07-15T21:08:34.135Z,76.80
2018-07-15T21:11:03.529Z,75.50
2018-07-15T21:16:01.573Z,77.40
2018-07-15T21:18:30.664Z,78.80
2018-07-15T21:20:59.772Z,80.40
2018-07-15T21:23:28.917Z,82.40
2018-07-15T21:25:58.149Z,85.80
2018-07-15T21:28:27.465Z,90.70
2018-07-15T21:30:56.720Z,93.20
2018-07-15T21:33:25.928Z,95.50
2018-07-15T21:35:54.973Z,97.10
2018-07-15T21:38:24.047Z,98.60
2018-07-15T21:40:54.101Z,99.90
2018-07-15T21:45:52.290Z,99.90
2018-07-15T21:50:50.198Z,99.90
2018-07-15T21:53:19.621Z,99.90
2018-07-15T21:55:48.820Z,99.90
2018-07-15T21:58:18.032Z,99.90
2018-07-15T22:00:47.108Z,99.90
2018-07-15T22:03:16.161Z,99.90
2018-07-15T22:08:25.306Z,99.90
2018-07-15T22:18:20.723Z,99.90
2018-07-15T22:20:49.980Z,99.90
2018-07-15T22:23:19.910Z,99.90
2018-07-15T22:25:49.100Z,99.90
2018-07-15T22:28:18.265Z,99.90
2018-07-15T22:35:44.972Z,99.90
2018-07-15T22:38:14.126Z,99.90
2018-07-15T22:43:12.095Z,99.90
2018-07-15T22:45:41.188Z,99.90
2018-07-15T22:48:10.284Z,99.90
2018-07-15T22:50:39.447Z,99.90
2018-07-15T22:53:08.729Z,99.90
2018-07-15T22:55:37.790Z,99.90
2018-07-15T23:00:35.745Z,99.90
2018-07-15T23:03:04.990Z,99.90
2018-07-15T23:05:46.851Z,99.90
2018-07-15T23:08:15.878Z,99.90
2018-07-15T23:10:45.168Z,99.90
2018-07-15T23:15:44.045Z,99.90
2018-07-15T23:18:13.317Z,99.90
2018-07-15T23:20:44.144Z,99.90
2018-07-15T23:23:14.053Z,99.90
2018-07-15T23:25:43.269Z,99.90
2018-07-15T23:28:13.616Z,99.90
2018-07-15T23:30:43.330Z,99.90
2018-07-15T23:33:12.513Z,99.90
2018-07-15T23:35:41.678Z,99.90
2018-07-15T23:38:10.963Z,99.90
2018-07-15T23:40:40.364Z,99.90
2018-07-15T23:43:09.743Z,99.90
2018-07-15T23:48:07.599Z,99.90
2018-07-15T23:50:36.825Z,99.90
2018-07-15T23:53:06.013Z,99.90
2018-07-15T23:55:35.095Z,99.90
2018-07-15T23:58:04.130Z,99.90
